createdAt,value
2019-05-07T00:00:43.768Z,7.75
2019-05-07T00:03:12.484Z,9.65
2019-05-07T00:05:42.769Z,9.38
2019-05-07T00:08:12.256Z,11.60
2019-05-07T00:10:42.490Z,9.90
2019-05-07T00:13:13.070Z,8.33
2019-05-07T00:15:42.042Z,11.97
2019-05-07T00:18:12.703Z,8.68
2019-05-07T00:20:42.370Z,8.73
2019-05-07T00:23:12.376Z,11.40
2019-05-07T00:25:42.150Z,10.53
2019-05-07T00:28:12.232Z,8.13
2019-05-07T00:30:42.526Z,15.08
2019-05-07T00:33:14.137Z,8.38
2019-05-07T00:35:52.934Z,11.35
2019-05-07T00:38:22.487Z,12.33
2019-05-07T00:40:59.084Z,10.70
2019-05-07T00:43:29.415Z,8.68
2019-05-07T00:46:02.098Z,9.05
2019-05-07T00:48:30.053Z,10.23
2019-05-07T00:51:16.801Z,8.28
2019-05-07T00:53:45.715Z,11.03
2019-05-07T00:56:14.338Z,11.33
2019-05-07T00:58:43.201Z,8.63
2019-05-07T01:01:13.057Z,10.25
2019-05-07T01:03:42.790Z,9.08
2019-05-07T01:06:12.850Z,10.43
2019-05-07T01:08:43.393Z,10.63
2019-05-07T01:11:13.174Z,14.38
2019-05-07T01:13:43.108Z,9.10
2019-05-07T01:16:12.877Z,12.07
2019-05-07T01:18:42.276Z,13.98
2019-05-07T01:21:13.067Z,13.95
2019-05-07T01:23:42.770Z,10.72
2019-05-07T01:26:13.808Z,9.88
2019-05-07T01:28:47.052Z,9.73
2019-05-07T01:31:17.320Z,10.60
2019-05-07T01:33:47.666Z,14.23
2019-05-07T01:36:19.616Z,9.95
2019-05-07T01:38:48.586Z,15.80
2019-05-07T01:41:17.981Z,14.05
2019-05-07T01:43:48.304Z,15.48
2019-05-07T01:46:16.999Z,11.88
2019-05-07T01:48:45.715Z,11.18
2019-05-07T01:51:14.566Z,13.30
2019-05-07T01:53:43.414Z,14.50
2019-05-07T01:56:12.503Z,12.63
2019-05-07T01:58:42.917Z,9.90
2019-05-07T02:01:13.129Z,14.73
2019-05-07T02:03:52.966Z,9.50
2019-05-07T02:06:29.824Z,13.68
2019-05-07T02:09:02.953Z,14.43
2019-05-07T02:11:43.115Z,11.60
2019-05-07T02:14:13.600Z,10.23
2019-05-07T02:16:42.308Z,15.00
2019-05-07T02:19:12.643Z,12.18
2019-05-07T02:21:42.369Z,15.10
2019-05-07T02:24:12.604Z,12.55
2019-05-07T02:26:42.720Z,15.18
2019-05-07T02:29:12.239Z,14.33
2019-05-07T02:31:44.270Z,14.53
2019-05-07T02:34:14.124Z,12.60
2019-05-07T02:36:43.358Z,11.43
2019-05-07T02:39:14.105Z,10.63
2019-05-07T02:41:44.143Z,13.38
2019-05-07T02:44:13.912Z,15.43
2019-05-07T02:47:00.045Z,14.47
2019-05-07T02:49:48.168Z,12.13
2019-05-07T02:52:18.479Z,13.98
2019-05-07T02:55:03.987Z,12.85
2019-05-07T02:57:34.004Z,11.30
2019-05-07T03:00:04.431Z,11.78
2019-05-07T03:02:33.231Z,15.93
2019-05-07T03:05:05.212Z,12.68
2019-05-07T03:07:33.455Z,15.15
2019-05-07T03:10:04.776Z,11.75
2019-05-07T03:12:33.772Z,12.95
2019-05-07T03:15:04.526Z,13.22
2019-05-07T03:17:33.539Z,11.33
2019-05-07T03:20:04.142Z,10.78
2019-05-07T03:22:33.763Z,12.10
2019-05-07T03:25:04.773Z,11.05
2019-05-07T03:27:34.325Z,10.38
2019-05-07T03:30:16.143Z,13.30
2019-05-07T03:32:46.813Z,12.78
2019-05-07T03:35:16.170Z,11.22
2019-05-07T03:37:44.878Z,13.15
2019-05-07T03:40:14.694Z,12.18
2019-05-07T03:42:44.236Z,12.18
2019-05-07T03:45:33.673Z,12.73
2019-05-07T03:48:15.820Z,10.35
2019-05-07T03:50:46.421Z,11.35
2019-05-07T03:53:15.722Z,13.62
2019-05-07T03:55:45.151Z,11.43
2019-05-07T03:58:14.861Z,14.13
2019-05-07T04:00:44.727Z,11.60
2019-05-07T04:03:18.776Z,11.05
2019-05-07T04:05:45.117Z,11.83
2019-05-07T04:08:14.506Z,12.03
2019-05-07T04:10:45.257Z,14.98
2019-05-07T04:13:14.576Z,13.27
2019-05-07T04:15:44.439Z,12.18
2019-05-07T04:18:13.840Z,12.33
2019-05-07T04:20:43.981Z,13.98
2019-05-07T04:23:14.132Z,11.38
2019-05-07T04:26:03.844Z,12.78
2019-05-07T04:28:39.023Z,14.53
2019-05-07T04:31:08.673Z,14.07
2019-05-07T04:33:39.432Z,14.38
2019-05-07T04:36:14.419Z,10.13
2019-05-07T04:38:44.208Z,13.90
2019-05-07T04:41:14.117Z,13.50
2019-05-07T04:43:43.710Z,13.18
2019-05-07T04:46:14.421Z,14.83
2019-05-07T04:48:44.310Z,15.95
2019-05-07T04:51:15.396Z,12.58
2019-05-07T04:53:44.712Z,16.52
2019-05-07T04:56:14.185Z,12.60
2019-05-07T04:58:43.924Z,15.18
2019-05-07T05:01:14.802Z,16.70
2019-05-07T05:03:44.399Z,11.60
2019-05-07T05:06:14.097Z,15.45
2019-05-07T05:08:44.820Z,13.03
2019-05-07T05:11:13.931Z,12.47
2019-05-07T05:13:44.333Z,14.73
2019-05-07T05:16:24.065Z,18.85
2019-05-07T05:18:54.441Z,16.35
2019-05-07T05:21:42.038Z,16.52
2019-05-07T05:24:12.947Z,14.98
2019-05-07T05:26:42.516Z,12.65
2019-05-07T05:29:12.154Z,14.43
2019-05-07T05:31:42.281Z,17.05
2019-05-07T05:34:13.083Z,15.72
2019-05-07T05:36:42.725Z,15.30
2019-05-07T05:39:13.192Z,11.85
2019-05-07T05:41:44.879Z,15.18
2019-05-07T05:46:44.479Z,12.10
2019-05-07T05:49:13.938Z,13.10
2019-05-07T05:51:44.816Z,13.85
2019-05-07T05:54:31.875Z,12.70
2019-05-07T05:57:03.037Z,10.75
2019-05-07T05:59:47.915Z,16.57
2019-05-07T06:02:12.141Z,12.75
2019-05-07T06:04:49.448Z,11.33
2019-05-07T06:07:22.702Z,13.83
2019-05-07T06:10:12.704Z,12.47
2019-05-07T06:12:42.899Z,12.37
2019-05-07T06:15:26.078Z,14.23
2019-05-07T06:17:57.006Z,11.88
2019-05-07T06:20:27.983Z,11.45
2019-05-07T06:23:16.824Z,9.23
2019-05-07T06:25:47.597Z,9.75
2019-05-07T06:28:17.201Z,12.70
2019-05-07T06:30:46.624Z,14.80
2019-05-07T06:33:16.073Z,15.65
2019-05-07T06:35:45.695Z,11.68
2019-05-07T06:38:15.448Z,10.43
2019-05-07T06:40:49.315Z,12.70
2019-05-07T06:43:24.947Z,12.78
2019-05-07T06:45:55.762Z,13.48
2019-05-07T06:48:37.632Z,10.95
2019-05-07T06:51:00.223Z,11.53
2019-05-07T06:53:33.277Z,15.08
2019-05-07T06:56:05.415Z,9.35
2019-05-07T06:58:36.043Z,15.70
2019-05-07T07:01:07.258Z,10.65
2019-05-07T07:03:44.221Z,13.90
2019-05-07T07:06:15.973Z,12.88
2019-05-07T07:11:29.279Z,12.85
2019-05-07T07:13:59.228Z,13.08
2019-05-07T07:16:28.197Z,10.28
2019-05-07T07:18:57.499Z,16.10
2019-05-07T07:21:26.665Z,11.15
2019-05-07T07:23:56.205Z,11.40
2019-05-07T07:26:26.505Z,14.55
2019-05-07T07:28:56.111Z,14.03
2019-05-07T07:31:39.623Z,11.93
2019-05-07T07:34:09.491Z,11.18
2019-05-07T07:36:42.333Z,13.62
2019-05-07T07:39:12.660Z,14.07
2019-05-07T07:41:47.674Z,10.15
2019-05-07T07:44:17.297Z,12.43
2019-05-07T07:46:47.170Z,11.88
2019-05-07T07:49:17.889Z,11.12
2019-05-07T07:51:48.476Z,13.43
2019-05-07T07:54:19.230Z,14.70
2019-05-07T07:57:09.848Z,14.47
2019-05-07T07:59:42.117Z,16.52
2019-05-07T08:02:13.216Z,16.48
2019-05-07T08:04:42.672Z,15.13
2019-05-07T08:07:12.499Z,17.52
2019-05-07T08:09:42.755Z,12.50
2019-05-07T08:12:12.984Z,14.63
2019-05-07T08:14:42.872Z,12.33
2019-05-07T08:17:12.971Z,13.93
2019-05-07T08:19:43.082Z,16.80
2019-05-07T08:22:12.630Z,20.37
2019-05-07T08:24:42.633Z,25.37
2019-05-07T08:27:14.734Z,19.07
2019-05-07T08:29:43.306Z,18.95
2019-05-07T08:32:23.650Z,19.12
2019-05-07T08:35:14.113Z,14.55
2019-05-07T08:37:42.727Z,12.15
2019-05-07T08:40:12.877Z,12.93
2019-05-07T08:42:42.330Z,12.68
2019-05-07T08:45:32.514Z,8.13
2019-05-07T08:48:12.595Z,6.50
2019-05-07T08:50:42.627Z,8.58
2019-05-07T08:53:13.198Z,10.68
2019-05-07T08:55:42.963Z,8.83
2019-05-07T08:58:12.480Z,8.13
2019-05-07T09:00:42.368Z,10.78
2019-05-07T09:03:20.187Z,11.83
2019-05-07T09:05:42.709Z,9.25
2019-05-07T09:08:12.857Z,11.38
2019-05-07T09:10:42.299Z,11.78
2019-05-07T09:13:12.582Z,9.63
2019-05-07T09:15:42.521Z,11.87
2019-05-07T09:18:12.478Z,16.37
2019-05-07T09:20:42.511Z,8.83
2019-05-07T09:23:12.234Z,12.07
2019-05-07T09:25:45.915Z,9.95
2019-05-07T09:28:15.385Z,12.68
2019-05-07T09:31:01.799Z,13.13
2019-05-07T09:33:42.286Z,11.43
2019-05-07T09:36:13.479Z,9.30
2019-05-07T09:38:55.234Z,8.18
2019-05-07T09:41:14.872Z,10.53
2019-05-07T09:43:44.060Z,8.83
2019-05-07T09:46:13.509Z,12.63
2019-05-07T09:48:42.737Z,11.70
2019-05-07T09:51:12.301Z,12.63
2019-05-07T09:53:42.501Z,10.78
2019-05-07T09:56:12.345Z,7.70
2019-05-07T09:58:42.590Z,9.63
2019-05-07T10:01:12.538Z,8.23
2019-05-07T10:03:42.860Z,8.05
2019-05-07T10:06:12.485Z,8.15
2019-05-07T10:08:42.022Z,10.68
2019-05-07T10:11:12.936Z,10.38
2019-05-07T10:13:44.009Z,8.00
2019-05-07T10:16:15.044Z,6.58
2019-05-07T10:18:44.636Z,6.75
2019-05-07T10:21:14.083Z,8.05
2019-05-07T10:23:43.669Z,8.78
2019-05-07T10:26:13.051Z,6.20
2019-05-07T10:28:42.561Z,5.80
2019-05-07T10:31:11.971Z,5.65
2019-05-07T10:33:42.212Z,6.72
2019-05-07T10:36:12.497Z,6.60
2019-05-07T10:38:42.204Z,5.97
2019-05-07T10:41:12.249Z,6.70
2019-05-07T10:43:42.828Z,7.08
2019-05-07T10:46:19.888Z,5.92
2019-05-07T10:48:50.731Z,5.70
2019-05-07T10:51:21.699Z,7.22
2019-05-07T10:53:51.784Z,6.55
2019-05-07T10:56:22.382Z,5.23
2019-05-07T10:58:52.336Z,11.00
2019-05-07T11:01:23.105Z,4.95
2019-05-07T11:03:52.324Z,7.40
2019-05-07T11:06:22.428Z,7.37
2019-05-07T11:08:52.109Z,4.62
2019-05-07T11:11:21.332Z,8.15
2019-05-07T11:13:55.780Z,5.05
2019-05-07T11:16:23.970Z,4.92
2019-05-07T11:18:54.078Z,6.22
2019-05-07T11:21:33.250Z,5.83
2019-05-07T11:24:03.581Z,7.35
2019-05-07T11:26:33.291Z,4.90
2019-05-07T11:29:02.687Z,5.08
2019-05-07T11:31:33.082Z,7.35
2019-05-07T11:34:02.940Z,5.40
2019-05-07T11:36:34.422Z,5.45
2019-05-07T11:39:03.038Z,7.90
2019-05-07T11:41:36.587Z,6.60
2019-05-07T11:44:07.408Z,5.08
2019-05-07T11:46:44.563Z,6.53
2019-05-07T11:49:24.804Z,5.83
2019-05-07T11:51:55.936Z,4.47
2019-05-07T11:54:25.166Z,5.55
2019-05-07T11:56:55.522Z,6.40
2019-05-07T11:59:25.091Z,4.87
2019-05-07T12:01:58.815Z,4.92
2019-05-07T12:04:28.215Z,6.17
2019-05-07T12:06:59.125Z,6.72
2019-05-07T12:09:28.648Z,8.65
2019-05-07T12:11:57.750Z,9.13
2019-05-07T12:14:31.851Z,6.45
2019-05-07T12:16:58.742Z,5.55
2019-05-07T12:19:28.398Z,6.60
2019-05-07T12:21:57.798Z,8.70
2019-05-07T12:24:27.469Z,5.03
2019-05-07T12:26:56.874Z,7.53
2019-05-07T12:29:29.541Z,7.30
2019-05-07T12:32:02.498Z,5.35
2019-05-07T12:34:42.435Z,6.28
2019-05-07T12:37:12.249Z,6.43
2019-05-07T12:39:42.370Z,6.10
2019-05-07T12:42:12.547Z,5.92
2019-05-07T12:44:42.637Z,6.53
2019-05-07T12:47:12.310Z,4.87
2019-05-07T12:49:42.907Z,6.17
2019-05-07T12:52:14.038Z,7.85
2019-05-07T12:54:47.996Z,6.90
2019-05-07T12:57:17.781Z,6.30
2019-05-07T12:59:49.632Z,6.25
2019-05-07T13:02:36.351Z,7.55
2019-05-07T13:04:52.166Z,4.30
2019-05-07T13:07:23.248Z,8.00
2019-05-07T13:09:53.064Z,7.15
2019-05-07T13:12:22.625Z,10.55
2019-05-07T13:14:52.258Z,5.00
2019-05-07T13:17:22.516Z,6.67
2019-05-07T13:19:52.528Z,7.30
2019-05-07T13:22:22.122Z,6.10
2019-05-07T13:24:52.904Z,6.28
2019-05-07T13:27:22.667Z,5.40
2019-05-07T13:29:53.203Z,5.35
2019-05-07T13:32:23.383Z,5.45
2019-05-07T13:34:53.617Z,5.37
2019-05-07T13:37:32.542Z,8.55
2019-05-07T13:40:04.104Z,4.45
2019-05-07T13:42:43.523Z,6.08
2019-05-07T13:45:29.251Z,5.85
2019-05-07T13:48:02.736Z,5.30
2019-05-07T13:50:32.658Z,8.10
2019-05-07T13:53:02.166Z,7.47
2019-05-07T13:55:32.397Z,5.17
2019-05-07T13:58:02.011Z,5.28
2019-05-07T14:00:33.034Z,5.25
2019-05-07T14:03:03.252Z,4.58
2019-05-07T14:05:32.882Z,5.53
2019-05-07T14:08:04.511Z,6.60
2019-05-07T14:10:33.879Z,6.17
2019-05-07T14:13:12.604Z,4.40
2019-05-07T14:15:35.027Z,6.78
2019-05-07T14:18:04.338Z,4.00
2019-05-07T14:20:33.650Z,6.85
2019-05-07T14:23:02.964Z,5.20
2019-05-07T14:25:32.633Z,8.45
2019-05-07T14:28:02.342Z,6.78
2019-05-07T14:30:32.767Z,3.70
2019-05-07T14:33:06.910Z,7.20
2019-05-07T14:35:52.085Z,4.35
2019-05-07T14:38:29.557Z,8.05
2019-05-07T14:41:00.140Z,7.92
2019-05-07T14:43:34.572Z,5.60
2019-05-07T14:46:03.953Z,6.83
2019-05-07T14:48:36.066Z,7.97
2019-05-07T14:51:04.385Z,8.00
2019-05-07T14:53:34.228Z,5.35
2019-05-07T14:56:03.749Z,4.28
2019-05-07T14:58:33.340Z,5.17
2019-05-07T15:01:03.114Z,5.87
2019-05-07T15:03:32.602Z,5.72
2019-05-07T15:06:02.584Z,5.53
2019-05-07T15:08:32.351Z,4.62
2019-05-07T15:11:02.808Z,4.60
2019-05-07T15:13:32.365Z,3.77
2019-05-07T15:16:03.094Z,4.10
2019-05-07T15:18:43.181Z,5.53
2019-05-07T15:21:13.833Z,6.58
2019-05-07T15:23:43.452Z,3.75
2019-05-07T15:26:12.962Z,5.65
2019-05-07T15:28:43.976Z,6.12
2019-05-07T15:31:15.148Z,4.50
2019-05-07T15:33:44.336Z,5.45
2019-05-07T15:36:13.527Z,7.37
2019-05-07T15:38:42.954Z,4.45
2019-05-07T15:41:12.507Z,5.35
2019-05-07T15:43:45.803Z,4.87
2019-05-07T15:46:13.446Z,4.15
2019-05-07T15:48:43.163Z,5.37
2019-05-07T15:51:12.119Z,5.87
2019-05-07T15:53:54.836Z,6.58
2019-05-07T15:56:24.193Z,5.70
2019-05-07T15:58:53.413Z,5.85
2019-05-07T16:01:22.676Z,4.80
2019-05-07T16:03:54.819Z,4.65
2019-05-07T16:06:22.559Z,5.03
2019-05-07T16:08:53.422Z,7.50
2019-05-07T16:11:23.185Z,6.12
2019-05-07T16:14:05.977Z,5.42
2019-05-07T16:16:36.556Z,5.78
2019-05-07T16:19:07.654Z,5.55
2019-05-07T16:21:36.752Z,5.60
2019-05-07T16:24:05.851Z,4.58
2019-05-07T16:26:35.205Z,5.72
2019-05-07T16:29:04.705Z,4.72
2019-05-07T16:31:33.909Z,5.97
2019-05-07T16:34:03.042Z,5.03
2019-05-07T16:36:32.847Z,5.75
2019-05-07T16:39:03.392Z,6.97
2019-05-07T16:41:32.799Z,4.77
2019-05-07T16:44:02.881Z,4.85
2019-05-07T16:46:35.749Z,5.22
2019-05-07T16:49:05.307Z,8.98
2019-05-07T16:51:34.407Z,5.20
2019-05-07T16:54:03.598Z,5.03
2019-05-07T16:56:33.375Z,5.20
2019-05-07T16:59:04.361Z,5.30
2019-05-07T17:01:33.609Z,8.38
2019-05-07T17:04:03.006Z,7.00
2019-05-07T17:06:32.286Z,6.22
2019-05-07T17:09:02.865Z,5.60
2019-05-07T17:11:32.276Z,5.12
2019-05-07T17:14:02.437Z,5.08
2019-05-07T17:16:31.887Z,7.67
2019-05-07T17:19:02.543Z,5.83
2019-05-07T17:21:32.483Z,5.40
2019-05-07T17:24:02.517Z,5.47
2019-05-07T17:26:31.955Z,5.25
2019-05-07T17:29:02.593Z,3.95
2019-05-07T17:31:31.979Z,6.57
2019-05-07T17:34:02.259Z,6.28
2019-05-07T17:36:33.112Z,4.28
2019-05-07T17:39:02.732Z,6.95
2019-05-07T17:41:32.378Z,6.05
2019-05-07T17:44:02.642Z,7.25
2019-05-07T17:46:32.524Z,4.22
2019-05-07T17:49:02.437Z,5.30
2019-05-07T17:51:42.619Z,8.20
2019-05-07T17:54:13.081Z,7.05
2019-05-07T17:56:43.427Z,3.35
2019-05-07T17:59:12.948Z,7.35
2019-05-07T18:01:50.032Z,8.65
2019-05-07T18:04:17.777Z,6.60
2019-05-07T18:06:46.768Z,7.00
2019-05-07T18:09:15.806Z,4.62
2019-05-07T18:11:44.858Z,4.55
2019-05-07T18:14:13.845Z,6.08
2019-05-07T18:16:44.774Z,5.15
2019-05-07T18:19:13.849Z,5.08
2019-05-07T18:21:42.891Z,4.25
2019-05-07T18:24:16.024Z,4.10
2019-05-07T18:26:43.362Z,3.97
2019-05-07T18:29:12.563Z,8.38
2019-05-07T18:31:43.420Z,4.15
2019-05-07T18:34:12.877Z,5.03
2019-05-07T18:36:42.367Z,6.10
2019-05-07T18:39:11.784Z,5.10
2019-05-07T18:41:41.692Z,6.22
2019-05-07T18:44:13.496Z,5.72
2019-05-07T18:46:41.663Z,5.83
2019-05-07T18:49:12.642Z,9.25
2019-05-07T18:51:42.662Z,5.67
2019-05-07T18:54:26.298Z,5.47
2019-05-07T18:56:42.998Z,8.23
2019-05-07T18:59:12.991Z,5.30
2019-05-07T19:01:43.544Z,6.45
2019-05-07T19:04:12.997Z,6.85
2019-05-07T19:06:42.575Z,7.62
2019-05-07T19:09:12.002Z,6.70
2019-05-07T19:11:42.741Z,7.62
2019-05-07T19:14:13.432Z,6.20
2019-05-07T19:16:43.098Z,8.03
2019-05-07T19:19:12.438Z,6.05
2019-05-07T19:21:42.333Z,4.15
2019-05-07T19:24:11.350Z,4.60
2019-05-07T19:26:41.937Z,4.90
2019-05-07T19:29:12.453Z,8.13
2019-05-07T19:31:41.816Z,6.25
2019-05-07T19:34:12.377Z,6.95
2019-05-07T19:36:42.449Z,7.92
2019-05-07T19:39:12.627Z,4.65
2019-05-07T19:41:43.013Z,5.30
2019-05-07T19:44:12.708Z,5.95
2019-05-07T19:46:41.567Z,5.83
2019-05-07T19:49:10.229Z,6.33
2019-05-07T19:51:38.929Z,5.97
2019-05-07T19:54:07.713Z,6.58
2019-05-07T19:56:36.924Z,6.62
2019-05-07T19:59:05.647Z,5.28
2019-05-07T20:01:35.961Z,6.25
2019-05-07T20:04:04.744Z,6.60
2019-05-07T20:06:33.440Z,5.28
2019-05-07T20:09:09.941Z,5.60
2019-05-07T20:11:34.037Z,6.42
2019-05-07T20:14:02.708Z,4.42
2019-05-07T20:16:32.916Z,5.00
2019-05-07T20:19:01.761Z,8.25
2019-05-07T20:21:32.624Z,6.45
2019-05-07T20:24:01.855Z,5.47
2019-05-07T20:26:32.598Z,3.70
2019-05-07T20:29:03.084Z,8.10
2019-05-07T20:31:33.148Z,4.92
2019-05-07T20:34:02.365Z,4.78
2019-05-07T20:36:32.719Z,5.12
2019-05-07T20:39:02.336Z,5.08
2019-05-07T20:41:32.904Z,8.43
2019-05-07T20:44:02.813Z,6.33
2019-05-07T20:46:32.576Z,5.95
2019-05-07T20:49:02.838Z,3.83
2019-05-07T20:51:32.500Z,7.20
2019-05-07T20:54:08.757Z,8.10
2019-05-07T20:56:39.138Z,5.97
2019-05-07T20:59:07.882Z,5.05
2019-05-07T21:01:36.543Z,5.17
2019-05-07T21:04:05.329Z,4.75
2019-05-07T21:06:34.042Z,5.90
2019-05-07T21:09:02.934Z,6.37
2019-05-07T21:11:32.329Z,5.30
2019-05-07T21:14:03.146Z,5.92
2019-05-07T21:16:32.872Z,6.62
2019-05-07T21:19:02.111Z,7.30
2019-05-07T21:21:32.744Z,6.28
2019-05-07T21:24:02.103Z,8.48
2019-05-07T21:26:32.699Z,8.48
2019-05-07T21:29:03.073Z,5.17
2019-05-07T21:31:32.205Z,5.62
2019-05-07T21:34:02.897Z,5.67
2019-05-07T21:36:32.445Z,8.55
2019-05-07T21:39:02.266Z,8.40
2019-05-07T21:41:33.270Z,8.15
2019-05-07T21:44:01.514Z,6.17
2019-05-07T21:46:30.119Z,6.58
2019-05-07T21:48:58.839Z,6.65
2019-05-07T21:51:27.574Z,8.08
2019-05-07T21:54:00.546Z,8.63
2019-05-07T21:56:38.373Z,9.68
2019-05-07T21:59:08.708Z,7.62
2019-05-07T22:01:39.045Z,8.18
2019-05-07T22:04:07.827Z,8.18
2019-05-07T22:06:36.636Z,8.03
2019-05-07T22:09:07.850Z,10.75
2019-05-07T22:11:36.664Z,9.00
2019-05-07T22:14:05.467Z,11.43
2019-05-07T22:16:33.968Z,8.18
2019-05-07T22:19:02.855Z,9.00
2019-05-07T22:21:33.962Z,10.58
2019-05-07T22:24:02.827Z,9.15
2019-05-07T22:26:32.320Z,7.83
2019-05-07T22:29:03.055Z,7.20
2019-05-07T22:31:38.942Z,10.50
2019-05-07T22:34:09.164Z,7.95
2019-05-07T22:36:37.876Z,10.70
2019-05-07T22:39:07.412Z,7.33
2019-05-07T22:41:36.197Z,8.73
2019-05-07T22:44:05.151Z,8.28
2019-05-07T22:46:33.802Z,10.28
2019-05-07T22:49:03.191Z,13.08
2019-05-07T22:51:31.959Z,14.28
2019-05-07T22:54:04.180Z,12.47
2019-05-07T22:56:37.621Z,10.93
2019-05-07T22:59:06.140Z,9.88
2019-05-07T23:01:34.786Z,9.65
2019-05-07T23:04:03.645Z,7.72
2019-05-07T23:06:33.023Z,9.88
2019-05-07T23:09:02.099Z,7.17
2019-05-07T23:11:30.841Z,6.80
2019-05-07T23:13:59.738Z,5.40
2019-05-07T23:16:28.291Z,9.68
2019-05-07T23:18:56.967Z,6.67
2019-05-07T23:21:25.634Z,6.08
2019-05-07T23:23:54.136Z,8.10
2019-05-07T23:26:23.459Z,7.17
2019-05-07T23:28:52.144Z,5.20
2019-05-07T23:31:22.895Z,8.50
2019-05-07T23:33:52.359Z,6.33
2019-05-07T23:36:22.541Z,7.65
2019-05-07T23:38:52.220Z,7.97
2019-05-07T23:41:22.633Z,5.87
2019-05-07T23:44:12.495Z,8.20
2019-05-07T23:46:42.600Z,8.85
2019-05-07T23:49:12.433Z,6.20
2019-05-07T23:51:42.096Z,9.88
2019-05-07T23:54:12.161Z,8.03
2019-05-07T23:56:42.733Z,8.00
2019-05-07T23:59:12.901Z,8.78
